Bancroft, Wisconsin
Current Conditions -  °F | °C
As of 10:54 PM on Friday 28 Nov 2014 (Local Time) from KISW Reporting Station
Overcast Overcast  
Wind Chill: 16°   Ceiling: 1000
Heat Index: 23°   Visibility: 7mi
Dew Point: 19°   Wind: 6mph
Humidity: 85%   Direction: 110°ESE
Pressure: 29.83"   Gusts: NA
Location:  44.31°N, 89.51°W
Report Text: KISW 290454Z AUTO 11005KT 7SM OVC010 M05/M07 A2983 RMK AO2 SLP118 T10501072 $
Loading
Personal Weather Stations






























Interactive Weather Map New forecast layout! Learn more

10-Day Weather Forecast

Advertisements
Track Severe Weather on mobile